^^
Station Historical Data
 
Daily Summary for October 20, 2017 Units:  Metric    English   Both
« Previous Day
Next Day »
Daily Weekly Monthly Yearly Custom
  Current: High: Low: Average:
Temperature: 18.9 °C 18.9 °C 10.1 °C 12.1 °C
Dew Point: 4.6 °C 6.7 °C 4.6 °C 6.2 °C
Humidity: 39% 78% 39% 68%
Wind Speed: 20.9km/h 24.1km/h 9.7km/h 16.1km/h
Wind Gust: 27.4km/h 29km/h - -
WindSouth - - SSW
Pressure: 1018.2 hPa 1018.5 hPa 1015.5 hPa -
Precipitation: 0 mm      
Historical Graphs
 
 
Tabular Data for October 20, 2017
Time Temperature Dew Point Pressure Wind Wind Speed Wind Gust Humidity Rainfall Rate (Hourly) solar Conditions
00:01 13.3 °C 6.2 °C 1016.5 hPa SSW 17.7 km/h 24.1 km/h 62% 0 mm 0.0 W/m2
00:06 13.2 °C 6.1 °C 1016.5 hPa SSW 13 km/h 20.9 km/h 62% 0 mm 0.0 W/m2
00:16 13.1 °C 6 °C 1016.5 hPa SSW 16.3 km/h 20.9 km/h 62% 0 mm 0.0 W/m2
00:21 13 °C 6.1 °C 1016.5 hPa SSW 16.3 km/h 22.5 km/h 63% 0 mm 0.0 W/m2
00:26 12.9 °C 5.8 °C 1016.1 hPa SSW 13 km/h 17.7 km/h 62% 0 mm 0.0 W/m2
00:36 12.8 °C 5.9 °C 1016.1 hPa SSW 17.7 km/h 24.1 km/h 63% 0 mm 0.0 W/m2
00:41 12.7 °C 6.1 °C 1016.1 hPa SSW 13 km/h 17.7 km/h 64% 0 mm 0.0 W/m2
00:51 12.6 °C 6 °C 1016.1 hPa SSW 19.5 km/h 22.5 km/h 64% 0 mm 0.0 W/m2
00:56 12.6 °C 6 °C 1016.5 hPa SSW 16.3 km/h 20.9 km/h 64% 0 mm 0.0 W/m2
01:06 12.5 °C 5.9 °C 1016.1 hPa SSW 19.5 km/h 25.7 km/h 64% 0 mm 0.0 W/m2
01:12 12.5 °C 6.1 °C 1016.1 hPa SSW 22.7 km/h 24.1 km/h 65% 0 mm 0.0 W/m2
01:21 12.4 °C 6 °C 1016.1 hPa SSW 14.3 km/h 22.5 km/h 65% 0 mm 0.0 W/m2
01:32 12.3 °C 6.1 °C 1016.1 hPa SSW 17.7 km/h 22.5 km/h 66% 0 mm 0.0 W/m2
01:37 12.2 °C 6 °C 1016.1 hPa SSW 14.3 km/h 17.7 km/h 66% 0 mm 0.0 W/m2
01:46 12 °C 6.1 °C 1015.8 hPa SW 13 km/h 17.7 km/h 67% 0 mm 0.0 W/m2
01:51 12 °C 6.1 °C 1015.8 hPa SW 11.1 km/h 17.7 km/h 67% 0 mm 0.0 W/m2
01:56 11.9 °C 6 °C 1015.5 hPa SW 13 km/h 16.1 km/h 67% 0 mm 0.0 W/m2
02:02 11.9 °C 6.2 °C 1015.8 hPa SW 13 km/h 19.3 km/h 68% 0 mm 0.0 W/m2
02:07 11.8 °C 6.1 °C 1015.8 hPa SW 16.3 km/h 19.3 km/h 68% 0 mm 0.0 W/m2
02:12 11.8 °C 6.1 °C 1015.8 hPa SSW 16.3 km/h 24.1 km/h 68% 0 mm 0.0 W/m2
02:17 11.8 °C 6.1 °C 1015.8 hPa SSW 14.3 km/h 17.7 km/h 68% 0 mm 0.0 W/m2
02:26 11.7 °C 6.2 °C 1015.8 hPa SSW 14.3 km/h 22.5 km/h 69% 0 mm 0.0 W/m2
02:31 11.7 °C 6.2 °C 1015.8 hPa SSW 16.3 km/h 20.9 km/h 69% 0 mm 0.0 W/m2
02:42 11.6 °C 6.3 °C 1015.8 hPa SW 11.1 km/h 19.3 km/h 70% 0 mm 0.0 W/m2
02:47 11.6 °C 6.3 °C 1015.8 hPa SW 9.7 km/h 16.1 km/h 70% 0 mm 0.0 W/m2
02:52 11.5 °C 6.2 °C 1015.8 hPa SW 9.7 km/h 19.3 km/h 70% 0 mm 0.0 W/m2
02:57 11.5 °C 6.4 °C 1015.8 hPa SW 17.7 km/h 22.5 km/h 71% 0 mm 0.0 W/m2
03:08 11.5 °C 6.4 °C 1015.8 hPa SW 16.3 km/h 24.1 km/h 71% 0 mm 0.0 W/m2
03:17 11.4 °C 6.3 °C 1015.8 hPa SSW 14.3 km/h 22.5 km/h 71% 0 mm 0.0 W/m2
03:22 11.4 °C 6.3 °C 1016.1 hPa SSW 16.3 km/h 20.9 km/h 71% 0 mm 0.0 W/m2
03:27 11.4 °C 6.3 °C 1016.1 hPa SSW 17.7 km/h 22.5 km/h 71% 0 mm 0.0 W/m2
03:37 11.3 °C 6.4 °C 1015.8 hPa SSW 17.7 km/h 20.9 km/h 72% 0 mm 0.0 W/m2
03:47 11.3 °C 6.4 °C 1016.1 hPa SSW 19.5 km/h 24.1 km/h 72% 0 mm 0.0 W/m2
03:52 11.3 °C 6.6 °C 1016.1 hPa SSW 17.7 km/h 22.5 km/h 73% 0 mm 0.0 W/m2
03:57 11.2 °C 6.5 °C 1016.1 hPa South 22.7 km/h 22.7 km/h 73% 0 mm 0.0 W/m2
04:03 11.2 °C 6.5 °C 1016.1 hPa SSW 19.5 km/h 24.1 km/h 73% 0 mm 0.0 W/m2
04:13 11.2 °C 6.5 °C 1016.1 hPa SSW 24.1 km/h 25.7 km/h 73% 0 mm 0.0 W/m2
04:18 11.2 °C 6.5 °C 1016.1 hPa SSW 17.7 km/h 27.4 km/h 73% 0 mm 0.0 W/m2
04:27 11 °C 6.3 °C 1016.1 hPa SW 17.7 km/h 22.5 km/h 73% 0 mm 0.0 W/m2
04:32 10.9 °C 6.3 °C 1016.1 hPa SSW 16.3 km/h 19.3 km/h 73% 0 mm 0.0 W/m2
04:37 10.9 °C 6.3 °C 1016.1 hPa SSW 17.7 km/h 19.3 km/h 73% 0 mm 0.0 W/m2
04:42 10.8 °C 6.2 °C 1016.1 hPa SSW 13 km/h 17.7 km/h 73% 0 mm 0.0 W/m2
04:47 10.8 °C 6.4 °C 1016.1 hPa SSW 17.7 km/h 20.9 km/h 74% 0 mm 0.0 W/m2
04:52 10.7 °C 6.3 °C 1016.5 hPa SSW 16.3 km/h 20.9 km/h 74% 0 mm 0.0 W/m2
04:57 10.7 °C 6.3 °C 1016.5 hPa SSW 17.7 km/h 19.3 km/h 74% 0 mm 0.0 W/m2
05:02 10.6 °C 6.4 °C 1016.5 hPa SW 11.1 km/h 17.7 km/h 75% 0 mm 0.0 W/m2
05:07 10.6 °C 6.4 °C 1016.5 hPa SSW 13 km/h 17.7 km/h 75% 0 mm 0.0 W/m2
05:18 10.5 °C 6.3 °C 1016.8 hPa SSW 13 km/h 17.7 km/h 75% 0 mm 0.0 W/m2
05:28 10.4 °C 6.4 °C 1016.8 hPa SW 13 km/h 17.7 km/h 76% 0 mm 0.0 W/m2
05:33 10.3 °C 6.3 °C 1016.8 hPa SW 16.3 km/h 17.7 km/h 76% 0 mm 0.0 W/m2
05:38 10.3 °C 6.3 °C 1016.8 hPa SSW 11.1 km/h 17.7 km/h 76% 0 mm 0.0 W/m2
05:48 10.3 °C 6.4 °C 1016.8 hPa SW 14.3 km/h 17.7 km/h 77% 0 mm 0.0 W/m2
05:53 10.2 °C 6.3 °C 1016.8 hPa SW 17.7 km/h 19.3 km/h 77% 0 mm 0.0 W/m2
05:58 10.2 °C 6.3 °C 1016.8 hPa SW 11.1 km/h 17.7 km/h 77% 0 mm 0.0 W/m2
06:08 10.1 °C 6.4 °C 1016.8 hPa SSW 9.7 km/h 19.3 km/h 78% 0 mm 5.0 W/m2
06:13 10.1 °C 6.4 °C 1016.8 hPa SSW 14.3 km/h 17.7 km/h 78% 0 mm 7.0 W/m2
06:19 10.1 °C 6.4 °C 1016.8 hPa SW 20.9 km/h 20.9 km/h 78% 0 mm 11.0 W/m2
06:42 10.3 °C 6.6 °C 1017.5 hPa SW 16.3 km/h 22.5 km/h 78% 0 mm 44.0 W/m2
06:53 10.5 °C 6.6 °C 1017.5 hPa SW 11.1 km/h 20.9 km/h 77% 0 mm 72.0 W/m2
07:05 10.7 °C 6.6 °C 1017.5 hPa SW 20.9 km/h 20.9 km/h 76% 0 mm 111.0 W/m2
07:34 11.5 °C 6.6 °C 1017.8 hPa SW 20.9 km/h 22.5 km/h 72% 0 mm 237.0 W/m2
07:49 11.8 °C 6.7 °C 1017.8 hPa SW 14.3 km/h 22.5 km/h 71% 0 mm 292.0 W/m2
08:19 12.8 °C 6.6 °C 1018.2 hPa SSW 16.3 km/h 24.1 km/h 66% 0 mm 401.0 W/m2
08:51 13.9 °C 6.3 °C 1018.2 hPa SSW 16.3 km/h 24.1 km/h 60% 0 mm 501.0 W/m2
09:07 14.9 °C 6.2 °C 1018.2 hPa SW 19.5 km/h 20.9 km/h 56% 0 mm 554.0 W/m2
09:23 15.8 °C 5.7 °C 1018.2 hPa SSW 17.7 km/h 20.9 km/h 51% 0 mm 603.0 W/m2
09:40 17.1 °C 5.4 °C 1018.2 hPa SW 24.1 km/h 29 km/h 46% 0 mm 663.0 W/m2
09:55 17.8 °C 5.1 °C 1018.2 hPa SW 22.7 km/h 22.7 km/h 43% 0 mm 705.0 W/m2
10:11 18.1 °C 5 °C 1018.5 hPa South 19.5 km/h 29 km/h 42% 0 mm 744.0 W/m2
10:25 18.8 °C 4.9 °C 1018.5 hPa South 11.1 km/h 22.5 km/h 40% 0 mm 780.0 W/m2
10:40 18.9 °C 4.6 °C 1018.2 hPa South 20.9 km/h 27.4 km/h 39% 0 mm 810.0 W/m2
Canyon Roadhouse, Fishriver Canyon, Namibia
Compliments of Weather Underground - 2 mb